Terminal Aerodrome Forecast
Issued by NWS Milwaukee/Sullivan, WI

Current Version | Previous Version | Text Only | Print | Product List | Glossary On
Versions: 1 2 3 4 5 6 7 8 9 10 11 12 13 14 15 16 17 18 19 20 21 22 23 24 25 26 27 28 29 30 31 32 33 34 35 36 37 38 39 40 41 42 43 44 45 46 47 48
000
FTUS43 KMKX 301122
TAFMSN
TAF
KMSN 301122Z 3012/3112 VRB05KT P6SM VCSH BKN012 OVC035
     FM301300 02008KT 6SM -SHRA OVC008
     FM301500 04013KT 5SM SHRA OVC008
     FM301600 04013KT P6SM -SHRA OVC008
     FM301800 04013G20KT P6SM OVC015
     FM302000 04013G20KT P6SM OVC035
     FM310200 04009KT P6SM SCT150=

USA.gov is the U.S. government's official web portal to all federal, state and local government web resources and services.